RPA3616 KORD-KDCA
Flight info
| Callsign | RPA3616 |
|---|---|
| Flight time | 1h 20m |
| Altitude | 33000 |
| Route | MOBLE ADIME OTENS ANEWA JERRI NUSMM BUCKO FRDMM6 |
| Aircraft | E75L/M-SDE3GILORVW/S |
Departure
| Time | 2026-04-25 00:29 |
|---|---|
| Airport | Chicago O'Hare International Airport (KORD) |
Arrival
| Time | 2026-04-25 01:50 |
|---|---|
| Airport | Ronald Reagan Washington National Airport (KDCA) |
| Time | Latitude | Longitude | Altitude | Speed | Heading |
|---|---|---|---|---|---|
| 2026-04-25 00:02 | 41.97691 | -87.91107 | 667 ft | 0 kts | 90° |
| 2026-04-25 00:19 | 41.97691 | -87.91109 | 667 ft | 1 kts | 90° |
| 2026-04-25 00:20 | 41.97690 | -87.91129 | 667 ft | 3 kts | 90° |
| 2026-04-25 00:20 | 41.97690 | -87.91156 | 667 ft | 2 kts | 90° |
| 2026-04-25 00:20 | 41.97690 | -87.91179 | 667 ft | 3 kts | 79° |
| 2026-04-25 00:20 | 41.97682 | -87.91203 | 667 ft | 3 kts | 46° |
| 2026-04-25 00:21 | 41.97666 | -87.91214 | 667 ft | 3 kts | 5° |
| 2026-04-25 00:21 | 41.97646 | -87.91211 | 667 ft | 3 kts | 340° |
| 2026-04-25 00:21 | 41.97631 | -87.91201 | 667 ft | 1 kts | 324° |
| 2026-04-25 00:21 | 41.97620 | -87.91191 | 667 ft | 3 kts | 324° |
| 2026-04-25 00:22 | 41.97614 | -87.91184 | 667 ft | 1 kts | 323° |
| 2026-04-25 00:24 | 41.97614 | -87.91185 | 667 ft | 1 kts | 323° |
| 2026-04-25 00:25 | 41.97633 | -87.91205 | 667 ft | 3 kts | 324° |
| 2026-04-25 00:25 | 41.97680 | -87.91242 | 667 ft | 11 kts | 329° |
| 2026-04-25 00:25 | 41.97766 | -87.91287 | 667 ft | 16 kts | 348° |
| 2026-04-25 00:25 | 41.97890 | -87.91286 | 667 ft | 20 kts | 15° |
| 2026-04-25 00:26 | 41.98030 | -87.91200 | 667 ft | 24 kts | 27° |
| 2026-04-25 00:26 | 41.98166 | -87.91069 | 667 ft | 24 kts | 52° |
| 2026-04-25 00:26 | 41.98244 | -87.90881 | 667 ft | 22 kts | 67° |
| 2026-04-25 00:26 | 41.98283 | -87.90670 | 666 ft | 24 kts | 84° |
| 2026-04-25 00:27 | 41.98287 | -87.90436 | 666 ft | 26 kts | 90° |
| 2026-04-25 00:27 | 41.98288 | -87.90192 | 667 ft | 27 kts | 89° |
| 2026-04-25 00:27 | 41.98287 | -87.89939 | 668 ft | 27 kts | 90° |
| 2026-04-25 00:27 | 41.98288 | -87.89723 | 668 ft | 17 kts | 90° |
| 2026-04-25 00:28 | 41.98322 | -87.89634 | 667 ft | 10 kts | 4° |
| 2026-04-25 00:28 | 41.98378 | -87.89673 | 669 ft | 9 kts | 311° |
| 2026-04-25 00:28 | 41.98389 | -87.89722 | 669 ft | 1 kts | 272° |
| 2026-04-25 00:28 | 41.98390 | -87.89835 | 668 ft | 42 kts | 271° |
| 2026-04-25 00:29 | 41.98389 | -87.90571 | 665 ft | 114 kts | 269° |
| 2026-04-25 00:29 | 41.98386 | -87.91889 | 846 ft | 158 kts | 273° |
| 2026-04-25 00:29 | 41.98385 | -87.93412 | 1648 ft | 167 kts | 274° |
| 2026-04-25 00:29 | 41.98456 | -87.94981 | 2723 ft | 168 kts | 286° |
| 2026-04-25 00:30 | 41.99087 | -87.96317 | 3543 ft | 183 kts | 324° |
| 2026-04-25 00:30 | 42.00368 | -87.96729 | 4308 ft | 205 kts | 6° |
| 2026-04-25 00:30 | 42.01738 | -87.95865 | 5038 ft | 241 kts | 35° |
| 2026-04-25 00:30 | 42.03144 | -87.94323 | 5111 ft | 281 kts | 36° |
| 2026-04-25 00:31 | 42.04696 | -87.92648 | 4912 ft | 285 kts | 36° |
| 2026-04-25 00:31 | 42.06205 | -87.90933 | 4963 ft | 291 kts | 43° |
| 2026-04-25 00:31 | 42.07185 | -87.88562 | 5176 ft | 297 kts | 75° |
| 2026-04-25 00:31 | 42.07121 | -87.85925 | 6121 ft | 267 kts | 100° |
| 2026-04-25 00:32 | 42.06688 | -87.83637 | 7033 ft | 240 kts | 104° |
| 2026-04-25 00:32 | 42.06275 | -87.81507 | 7481 ft | 234 kts | 103° |
| 2026-04-25 00:32 | 42.05912 | -87.79378 | 7759 ft | 233 kts | 101° |
| 2026-04-25 00:32 | 42.05575 | -87.77231 | 8017 ft | 235 kts | 100° |
| 2026-04-25 00:33 | 42.05239 | -87.74988 | 8254 ft | 256 kts | 100° |
| 2026-04-25 00:33 | 42.04889 | -87.72506 | 8630 ft | 284 kts | 99° |
| 2026-04-25 00:33 | 42.04512 | -87.69793 | 9157 ft | 303 kts | 99° |
| 2026-04-25 00:33 | 42.04123 | -87.66968 | 9966 ft | 310 kts | 99° |
| 2026-04-25 00:34 | 42.03726 | -87.64050 | 10541 ft | 328 kts | 99° |
| 2026-04-25 00:34 | 42.03295 | -87.60969 | 11218 ft | 339 kts | 99° |
| 2026-04-25 00:34 | 42.02855 | -87.57839 | 12117 ft | 343 kts | 99° |
| 2026-04-25 00:34 | 42.02413 | -87.54667 | 13100 ft | 346 kts | 99° |
| 2026-04-25 00:35 | 42.01964 | -87.51471 | 14089 ft | 349 kts | 99° |
| 2026-04-25 00:35 | 42.01509 | -87.48244 | 15029 ft | 354 kts | 100° |
| 2026-04-25 00:35 | 42.01036 | -87.44974 | 15950 ft | 359 kts | 101° |
| 2026-04-25 00:35 | 42.00535 | -87.41659 | 16838 ft | 364 kts | 102° |
| 2026-04-25 00:36 | 42.00017 | -87.38299 | 17674 ft | 370 kts | 102° |
| 2026-04-25 00:36 | 41.99477 | -87.34893 | 18454 ft | 375 kts | 103° |
| 2026-04-25 00:36 | 41.98919 | -87.31448 | 19208 ft | 379 kts | 104° |
| 2026-04-25 00:36 | 41.98347 | -87.27975 | 19997 ft | 383 kts | 104° |
| 2026-04-25 00:37 | 41.97759 | -87.24469 | 20785 ft | 386 kts | 105° |
| 2026-04-25 00:37 | 41.97152 | -87.20929 | 21532 ft | 390 kts | 106° |
| 2026-04-25 00:37 | 41.96534 | -87.17398 | 22228 ft | 394 kts | 107° |
| 2026-04-25 00:37 | 41.95894 | -87.13802 | 22901 ft | 398 kts | 107° |
| 2026-04-25 00:38 | 41.95238 | -87.10175 | 23537 ft | 401 kts | 107° |
| 2026-04-25 00:38 | 41.94577 | -87.06509 | 24053 ft | 406 kts | 105° |
| 2026-04-25 00:38 | 41.94290 | -87.02694 | 24545 ft | 416 kts | 94° |
| 2026-04-25 00:38 | 41.94360 | -86.98787 | 25074 ft | 421 kts | 91° |
| 2026-04-25 00:39 | 41.94454 | -86.94845 | 25589 ft | 425 kts | 92° |
| 2026-04-25 00:39 | 41.94536 | -86.90859 | 26092 ft | 429 kts | 92° |
| 2026-04-25 00:39 | 41.94615 | -86.86836 | 26585 ft | 433 kts | 92° |
| 2026-04-25 00:39 | 41.94691 | -86.82771 | 27074 ft | 437 kts | 92° |
| 2026-04-25 00:40 | 41.94764 | -86.78674 | 27541 ft | 441 kts | 92° |
| 2026-04-25 00:40 | 41.94837 | -86.74533 | 27995 ft | 445 kts | 92° |
| 2026-04-25 00:40 | 41.94908 | -86.70356 | 28433 ft | 449 kts | 92° |
| 2026-04-25 00:40 | 41.94979 | -86.66142 | 28860 ft | 453 kts | 93° |
| 2026-04-25 00:41 | 41.95049 | -86.61894 | 29278 ft | 457 kts | 93° |
| 2026-04-25 00:41 | 41.95117 | -86.57604 | 29688 ft | 461 kts | 93° |
| 2026-04-25 00:41 | 41.95186 | -86.53283 | 30066 ft | 464 kts | 93° |
| 2026-04-25 00:41 | 41.95254 | -86.48937 | 30423 ft | 467 kts | 93° |
| 2026-04-25 00:42 | 41.95320 | -86.44571 | 30780 ft | 469 kts | 93° |
| 2026-04-25 00:42 | 41.95385 | -86.40179 | 31123 ft | 472 kts | 93° |
| 2026-04-25 00:42 | 41.95450 | -86.35759 | 31456 ft | 474 kts | 94° |
| 2026-04-25 00:42 | 41.95513 | -86.31316 | 31776 ft | 477 kts | 94° |
| 2026-04-25 00:43 | 41.95575 | -86.26854 | 32088 ft | 479 kts | 94° |
| 2026-04-25 00:43 | 41.95612 | -86.22379 | 32498 ft | 477 kts | 97° |
| 2026-04-25 00:43 | 41.95219 | -86.18006 | 32883 ft | 470 kts | 105° |
| 2026-04-25 00:43 | 41.94589 | -86.13659 | 32861 ft | 478 kts | 107° |
| 2026-04-25 00:44 | 41.93302 | -86.04835 | 32873 ft | 489 kts | 107° |
| 2026-04-25 00:44 | 41.91998 | -85.95827 | 32859 ft | 493 kts | 106° |
| 2026-04-25 00:45 | 41.90694 | -85.86791 | 32828 ft | 493 kts | 106° |
| 2026-04-25 00:45 | 41.89383 | -85.77761 | 32836 ft | 493 kts | 106° |
| 2026-04-25 00:46 | 41.88288 | -85.70255 | 32841 ft | 493 kts | 106° |
| 2026-04-25 00:47 | 41.86300 | -85.56713 | 32836 ft | 493 kts | 106° |
| 2026-04-25 00:47 | 41.84966 | -85.47684 | 32840 ft | 493 kts | 106° |
| 2026-04-25 00:48 | 41.83625 | -85.38667 | 32844 ft | 493 kts | 106° |
| 2026-04-25 00:48 | 41.82277 | -85.29648 | 32842 ft | 493 kts | 106° |
| 2026-04-25 00:49 | 41.80924 | -85.20638 | 32845 ft | 493 kts | 106° |
| 2026-04-25 00:49 | 41.79563 | -85.11634 | 32841 ft | 493 kts | 106° |
| 2026-04-25 00:50 | 41.78197 | -85.02638 | 32843 ft | 493 kts | 106° |
| 2026-04-25 00:50 | 41.76826 | -84.93644 | 32842 ft | 492 kts | 106° |
| 2026-04-25 00:51 | 41.75448 | -84.84665 | 32844 ft | 492 kts | 106° |
| 2026-04-25 00:51 | 41.74065 | -84.75690 | 32847 ft | 492 kts | 105° |
| 2026-04-25 00:52 | 41.72690 | -84.66781 | 32847 ft | 492 kts | 105° |
| 2026-04-25 00:52 | 41.71297 | -84.57813 | 32848 ft | 492 kts | 105° |
| 2026-04-25 00:53 | 41.69899 | -84.48858 | 32844 ft | 492 kts | 105° |
| 2026-04-25 00:53 | 41.68487 | -84.39898 | 32840 ft | 492 kts | 105° |
| 2026-04-25 00:54 | 41.67069 | -84.30947 | 32842 ft | 491 kts | 105° |
| 2026-04-25 00:54 | 41.65644 | -84.22017 | 32842 ft | 491 kts | 105° |
| 2026-04-25 00:55 | 41.64228 | -84.13082 | 32841 ft | 491 kts | 105° |
| 2026-04-25 00:55 | 41.62796 | -84.04145 | 32842 ft | 491 kts | 105° |
| 2026-04-25 00:56 | 41.61361 | -83.95228 | 32840 ft | 491 kts | 105° |
| 2026-04-25 00:56 | 41.59917 | -83.86310 | 32841 ft | 491 kts | 105° |
| 2026-04-25 00:57 | 41.58471 | -83.77384 | 32842 ft | 491 kts | 105° |
| 2026-04-25 00:57 | 41.57008 | -83.68472 | 32842 ft | 491 kts | 105° |
| 2026-04-25 00:58 | 41.55509 | -83.59625 | 32862 ft | 492 kts | 105° |
| 2026-04-25 00:58 | 41.54007 | -83.50711 | 32863 ft | 493 kts | 105° |
| 2026-04-25 00:59 | 41.52532 | -83.41778 | 32865 ft | 493 kts | 104° |
| 2026-04-25 00:59 | 41.51073 | -83.32828 | 32853 ft | 494 kts | 104° |
| 2026-04-25 01:00 | 41.49589 | -83.23875 | 32844 ft | 494 kts | 105° |
| 2026-04-25 01:00 | 41.48081 | -83.14926 | 32831 ft | 495 kts | 104° |
| 2026-04-25 01:01 | 41.46567 | -83.05964 | 32835 ft | 496 kts | 105° |
| 2026-04-25 01:01 | 41.45040 | -82.96995 | 32841 ft | 496 kts | 104° |
| 2026-04-25 01:02 | 41.43508 | -82.88012 | 32841 ft | 497 kts | 105° |
| 2026-04-25 01:02 | 41.41962 | -82.79024 | 32840 ft | 498 kts | 104° |
| 2026-04-25 01:03 | 41.40414 | -82.70033 | 32836 ft | 498 kts | 104° |
| 2026-04-25 01:03 | 41.38537 | -82.61188 | 32826 ft | 494 kts | 120° |
| 2026-04-25 01:03 | 41.36558 | -82.57514 | 32863 ft | 487 kts | 136° |
| 2026-04-25 01:04 | 41.34174 | -82.54315 | 32898 ft | 487 kts | 139° |
| 2026-04-25 01:04 | 41.29372 | -82.47958 | 32838 ft | 487 kts | 138° |
| 2026-04-25 01:05 | 41.24630 | -82.41590 | 32840 ft | 488 kts | 138° |
| 2026-04-25 01:05 | 41.19872 | -82.35168 | 32844 ft | 488 kts | 137° |
| 2026-04-25 01:06 | 41.15116 | -82.28740 | 32844 ft | 488 kts | 137° |
| 2026-04-25 01:06 | 41.10348 | -82.22302 | 32842 ft | 489 kts | 137° |
| 2026-04-25 01:07 | 41.05582 | -82.15877 | 32837 ft | 489 kts | 137° |
| 2026-04-25 01:07 | 41.00809 | -82.09453 | 32841 ft | 489 kts | 137° |
| 2026-04-25 01:08 | 40.96022 | -82.03027 | 32842 ft | 490 kts | 137° |
| 2026-04-25 01:08 | 40.91224 | -81.96597 | 32844 ft | 491 kts | 137° |
| 2026-04-25 01:09 | 40.86427 | -81.90184 | 32840 ft | 491 kts | 137° |
| 2026-04-25 01:09 | 40.81623 | -81.83775 | 32844 ft | 490 kts | 137° |
| 2026-04-25 01:10 | 40.76818 | -81.77380 | 32844 ft | 490 kts | 137° |
| 2026-04-25 01:10 | 40.72013 | -81.70997 | 32841 ft | 490 kts | 137° |
| 2026-04-25 01:11 | 40.67202 | -81.64622 | 32834 ft | 490 kts | 137° |
| 2026-04-25 01:11 | 40.62388 | -81.58255 | 32834 ft | 491 kts | 137° |
| 2026-04-25 01:12 | 40.57563 | -81.51888 | 32835 ft | 491 kts | 137° |
| 2026-04-25 01:12 | 40.52773 | -81.45580 | 32833 ft | 491 kts | 136° |
| 2026-04-25 01:13 | 40.47938 | -81.39226 | 32833 ft | 491 kts | 137° |
| 2026-04-25 01:13 | 40.43098 | -81.32881 | 32832 ft | 492 kts | 136° |
| 2026-04-25 01:14 | 40.38255 | -81.26539 | 32834 ft | 492 kts | 136° |
| 2026-04-25 01:14 | 40.33398 | -81.20203 | 32828 ft | 493 kts | 136° |
| 2026-04-25 01:15 | 40.28536 | -81.13857 | 32827 ft | 493 kts | 136° |
| 2026-04-25 01:15 | 40.23672 | -81.07520 | 32833 ft | 493 kts | 136° |
| 2026-04-25 01:16 | 40.18794 | -81.01200 | 32837 ft | 494 kts | 136° |
| 2026-04-25 01:16 | 40.13941 | -80.94913 | 32835 ft | 494 kts | 136° |
| 2026-04-25 01:17 | 40.09053 | -80.88596 | 32839 ft | 494 kts | 136° |
| 2026-04-25 01:17 | 40.04165 | -80.82272 | 32840 ft | 495 kts | 136° |
| 2026-04-25 01:18 | 39.99331 | -80.75877 | 32839 ft | 495 kts | 134° |
| 2026-04-25 01:18 | 39.94552 | -80.69401 | 32837 ft | 495 kts | 134° |
| 2026-04-25 01:19 | 39.89764 | -80.62934 | 32831 ft | 496 kts | 134° |
| 2026-04-25 01:19 | 39.87363 | -80.59703 | 32668 ft | 498 kts | 134° |
| 2026-04-25 01:19 | 39.84954 | -80.56464 | 32402 ft | 498 kts | 134° |
| 2026-04-25 01:19 | 39.82545 | -80.53227 | 32139 ft | 498 kts | 134° |
| 2026-04-25 01:20 | 39.80135 | -80.49994 | 31880 ft | 498 kts | 134° |
| 2026-04-25 01:20 | 39.77720 | -80.46760 | 31639 ft | 498 kts | 134° |
| 2026-04-25 01:20 | 39.75302 | -80.43522 | 31387 ft | 499 kts | 134° |
| 2026-04-25 01:20 | 39.72880 | -80.40285 | 31230 ft | 499 kts | 134° |
| 2026-04-25 01:21 | 39.70466 | -80.37059 | 31098 ft | 499 kts | 134° |
| 2026-04-25 01:21 | 39.68044 | -80.33826 | 30978 ft | 500 kts | 134° |
| 2026-04-25 01:21 | 39.65648 | -80.30632 | 30860 ft | 500 kts | 134° |
| 2026-04-25 01:22 | 39.60765 | -80.24135 | 30878 ft | 500 kts | 134° |
| 2026-04-25 01:22 | 39.55937 | -80.17722 | 30894 ft | 500 kts | 134° |
| 2026-04-25 01:23 | 39.51074 | -80.11279 | 30862 ft | 500 kts | 134° |
| 2026-04-25 01:23 | 39.46208 | -80.04844 | 30858 ft | 500 kts | 134° |
| 2026-04-25 01:24 | 39.41424 | -79.98531 | 30805 ft | 474 kts | 134° |
| 2026-04-25 01:24 | 39.39160 | -79.95549 | 30775 ft | 455 kts | 134° |
| 2026-04-25 01:24 | 39.36970 | -79.92667 | 30881 ft | 445 kts | 134° |
| 2026-04-25 01:25 | 39.32621 | -79.86948 | 30878 ft | 446 kts | 134° |
| 2026-04-25 01:25 | 39.29212 | -79.80375 | 30894 ft | 443 kts | 104° |
| 2026-04-25 01:25 | 39.28677 | -79.76487 | 30933 ft | 439 kts | 93° |
| 2026-04-25 01:26 | 39.28418 | -79.72564 | 30954 ft | 439 kts | 92° |
| 2026-04-25 01:26 | 39.27893 | -79.64701 | 30876 ft | 439 kts | 92° |
| 2026-04-25 01:27 | 39.27330 | -79.56857 | 30891 ft | 439 kts | 92° |
| 2026-04-25 01:27 | 39.26717 | -79.49006 | 30559 ft | 445 kts | 93° |
| 2026-04-25 01:28 | 39.26069 | -79.41034 | 29502 ft | 441 kts | 93° |
| 2026-04-25 01:28 | 39.25748 | -79.37100 | 29157 ft | 440 kts | 94° |
| 2026-04-25 01:28 | 39.25424 | -79.33167 | 28759 ft | 442 kts | 94° |
| 2026-04-25 01:28 | 39.25099 | -79.29223 | 28409 ft | 442 kts | 94° |
| 2026-04-25 01:29 | 39.24772 | -79.25277 | 28036 ft | 443 kts | 94° |
| 2026-04-25 01:29 | 39.24442 | -79.21328 | 27696 ft | 443 kts | 94° |
| 2026-04-25 01:29 | 39.24109 | -79.17385 | 27369 ft | 441 kts | 94° |
| 2026-04-25 01:29 | 39.23775 | -79.13467 | 27047 ft | 438 kts | 94° |
| 2026-04-25 01:30 | 39.23441 | -79.09559 | 26728 ft | 436 kts | 94° |
| 2026-04-25 01:30 | 39.23109 | -79.05688 | 26434 ft | 433 kts | 94° |
| 2026-04-25 01:30 | 39.22781 | -79.01883 | 26117 ft | 431 kts | 94° |
| 2026-04-25 01:30 | 39.22450 | -78.98050 | 25837 ft | 428 kts | 94° |
| 2026-04-25 01:31 | 39.22114 | -78.94243 | 25589 ft | 424 kts | 94° |
| 2026-04-25 01:31 | 39.21747 | -78.90467 | 25304 ft | 428 kts | 95° |
| 2026-04-25 01:31 | 39.21374 | -78.86620 | 24349 ft | 434 kts | 94° |
| 2026-04-25 01:31 | 39.20997 | -78.82771 | 23725 ft | 428 kts | 95° |
| 2026-04-25 01:32 | 39.20628 | -78.78996 | 23067 ft | 421 kts | 95° |
| 2026-04-25 01:32 | 39.20266 | -78.75298 | 22508 ft | 411 kts | 95° |
| 2026-04-25 01:32 | 39.19912 | -78.71684 | 21957 ft | 402 kts | 95° |
| 2026-04-25 01:32 | 39.19564 | -78.68143 | 21415 ft | 394 kts | 95° |
| 2026-04-25 01:33 | 39.19336 | -78.65839 | 21078 ft | 389 kts | 95° |
| 2026-04-25 01:33 | 39.18997 | -78.62408 | 20567 ft | 383 kts | 95° |
| 2026-04-25 01:33 | 39.18662 | -78.59017 | 20071 ft | 380 kts | 95° |
| 2026-04-25 01:33 | 39.18328 | -78.55645 | 19561 ft | 379 kts | 95° |
| 2026-04-25 01:34 | 39.17993 | -78.52285 | 19076 ft | 377 kts | 95° |
| 2026-04-25 01:34 | 39.17659 | -78.48935 | 18558 ft | 376 kts | 95° |
| 2026-04-25 01:34 | 39.17326 | -78.45610 | 18060 ft | 373 kts | 95° |
| 2026-04-25 01:34 | 39.16995 | -78.42312 | 17581 ft | 368 kts | 95° |
| 2026-04-25 01:35 | 39.16667 | -78.39051 | 17121 ft | 365 kts | 95° |
| 2026-04-25 01:35 | 39.16240 | -78.35856 | 16957 ft | 363 kts | 102° |
| 2026-04-25 01:35 | 39.15528 | -78.32712 | 16789 ft | 366 kts | 106° |
| 2026-04-25 01:35 | 39.14726 | -78.29599 | 16855 ft | 367 kts | 107° |
| 2026-04-25 01:36 | 39.13924 | -78.26468 | 16885 ft | 369 kts | 106° |
| 2026-04-25 01:36 | 39.13131 | -78.23322 | 16879 ft | 369 kts | 106° |
| 2026-04-25 01:36 | 39.12345 | -78.20175 | 16881 ft | 369 kts | 106° |
| 2026-04-25 01:36 | 39.11560 | -78.17025 | 16882 ft | 369 kts | 106° |
| 2026-04-25 01:37 | 39.10775 | -78.13876 | 16879 ft | 369 kts | 106° |
| 2026-04-25 01:37 | 39.09985 | -78.10714 | 16634 ft | 372 kts | 106° |
| 2026-04-25 01:37 | 39.09185 | -78.07559 | 16358 ft | 369 kts | 107° |
| 2026-04-25 01:37 | 39.08381 | -78.04421 | 15876 ft | 370 kts | 107° |
| 2026-04-25 01:38 | 39.07581 | -78.01296 | 15380 ft | 367 kts | 107° |
| 2026-04-25 01:38 | 39.06785 | -77.98192 | 14874 ft | 363 kts | 107° |
| 2026-04-25 01:38 | 39.05997 | -77.95119 | 14411 ft | 359 kts | 107° |
| 2026-04-25 01:38 | 39.05219 | -77.92082 | 13926 ft | 355 kts | 107° |
| 2026-04-25 01:39 | 39.04451 | -77.89096 | 13442 ft | 349 kts | 107° |
| 2026-04-25 01:39 | 39.03698 | -77.86164 | 13007 ft | 341 kts | 107° |
| 2026-04-25 01:39 | 39.02958 | -77.83290 | 12563 ft | 336 kts | 107° |
| 2026-04-25 01:39 | 39.02231 | -77.80466 | 12131 ft | 330 kts | 107° |
| 2026-04-25 01:40 | 39.01511 | -77.77677 | 11700 ft | 326 kts | 108° |
| 2026-04-25 01:40 | 39.00803 | -77.74931 | 11269 ft | 322 kts | 108° |
| 2026-04-25 01:40 | 39.00111 | -77.72252 | 10851 ft | 318 kts | 108° |
| 2026-04-25 01:40 | 38.99414 | -77.69558 | 10438 ft | 315 kts | 108° |
| 2026-04-25 01:41 | 38.98723 | -77.66894 | 10026 ft | 313 kts | 108° |
| 2026-04-25 01:41 | 38.98034 | -77.64255 | 9572 ft | 311 kts | 109° |
| 2026-04-25 01:41 | 38.97279 | -77.61667 | 9182 ft | 306 kts | 111° |
| 2026-04-25 01:41 | 38.96508 | -77.59128 | 8760 ft | 303 kts | 111° |
| 2026-04-25 01:42 | 38.95753 | -77.56619 | 8369 ft | 300 kts | 111° |
| 2026-04-25 01:42 | 38.95010 | -77.54132 | 8050 ft | 295 kts | 111° |
| 2026-04-25 01:42 | 38.94584 | -77.51615 | 7831 ft | 285 kts | 87° |
| 2026-04-25 01:42 | 38.95045 | -77.49225 | 7870 ft | 275 kts | 66° |
| 2026-04-25 01:43 | 38.95810 | -77.46949 | 7894 ft | 280 kts | 63° |
| 2026-04-25 01:43 | 38.96613 | -77.44662 | 7915 ft | 283 kts | 63° |
| 2026-04-25 01:43 | 38.97413 | -77.42340 | 7894 ft | 284 kts | 64° |
| 2026-04-25 01:43 | 38.98214 | -77.40016 | 7816 ft | 283 kts | 64° |
| 2026-04-25 01:44 | 38.98996 | -77.37735 | 7816 ft | 282 kts | 64° |
| 2026-04-25 01:44 | 38.99785 | -77.35393 | 7821 ft | 283 kts | 64° |
| 2026-04-25 01:44 | 39.00549 | -77.33080 | 7656 ft | 286 kts | 65° |
| 2026-04-25 01:44 | 39.01327 | -77.30735 | 7473 ft | 283 kts | 64° |
| 2026-04-25 01:45 | 39.02112 | -77.28390 | 7103 ft | 285 kts | 64° |
| 2026-04-25 01:45 | 39.02840 | -77.26033 | 6794 ft | 283 kts | 74° |
| 2026-04-25 01:45 | 39.02801 | -77.23503 | 6478 ft | 282 kts | 108° |
| 2026-04-25 01:45 | 39.01774 | -77.21421 | 6164 ft | 273 kts | 136° |
| 2026-04-25 01:46 | 39.00388 | -77.19840 | 5841 ft | 263 kts | 142° |
| 2026-04-25 01:46 | 38.99021 | -77.18347 | 5411 ft | 255 kts | 139° |
| 2026-04-25 01:46 | 38.97727 | -77.16746 | 4588 ft | 263 kts | 136° |
| 2026-04-25 01:46 | 38.96422 | -77.15076 | 3856 ft | 263 kts | 138° |
| 2026-04-25 01:47 | 38.95099 | -77.13545 | 3273 ft | 247 kts | 143° |
| 2026-04-25 01:47 | 38.93773 | -77.12263 | 2773 ft | 229 kts | 146° |
| 2026-04-25 01:47 | 38.92517 | -77.11150 | 2339 ft | 207 kts | 151° |
| 2026-04-25 01:47 | 38.91383 | -77.10148 | 1858 ft | 190 kts | 137° |
| 2026-04-25 01:48 | 38.90651 | -77.08820 | 1532 ft | 177 kts | 118° |
| 2026-04-25 01:48 | 38.90201 | -77.07425 | 1464 ft | 160 kts | 120° |
| 2026-04-25 01:48 | 38.89594 | -77.06315 | 1341 ft | 143 kts | 136° |
| 2026-04-25 01:48 | 38.88893 | -77.05476 | 940 ft | 134 kts | 138° |
| 2026-04-25 01:49 | 38.88219 | -77.04703 | 616 ft | 128 kts | 138° |
| 2026-04-25 01:49 | 38.87491 | -77.04087 | 402 ft | 125 kts | 162° |
| 2026-04-25 01:49 | 38.86622 | -77.03915 | 199 ft | 128 kts | 176° |
| 2026-04-25 01:49 | 38.85760 | -77.03837 | 23 ft | 116 kts | 175° |
| 2026-04-25 01:50 | 38.85074 | -77.03766 | 22 ft | 75 kts | 175° |
| 2026-04-25 01:50 | 38.84739 | -77.03750 | 22 ft | 14 kts | 200° |
| 2026-04-25 01:50 | 38.84677 | -77.03830 | 24 ft | 7 kts | 266° |
| 2026-04-25 01:50 | 38.84699 | -77.03867 | 22 ft | 9 kts | 338° |
| 2026-04-25 01:51 | 38.84726 | -77.03877 | 24 ft | 4 kts | 332° |
| 2026-04-25 01:51 | 38.84741 | -77.03913 | 22 ft | 2 kts | 289° |
| 2026-04-25 01:51 | 38.84747 | -77.03929 | 22 ft | 1 kts | 314° |
| 2026-04-25 01:51 | 38.84783 | -77.03940 | 22 ft | 10 kts | 360° |
| 2026-04-25 01:52 | 38.84881 | -77.03946 | 22 ft | 18 kts | 356° |
| 2026-04-25 01:52 | 38.84994 | -77.03960 | 22 ft | 12 kts | 353° |
| 2026-04-25 01:52 | 38.85090 | -77.03976 | 22 ft | 10 kts | 345° |
| 2026-04-25 01:52 | 38.85109 | -77.04030 | 24 ft | 7 kts | 259° |
| 2026-04-25 01:53 | 38.85100 | -77.04097 | 22 ft | 6 kts | 260° |
| 2026-04-25 01:53 | 38.85097 | -77.04115 | 22 ft | 2 kts | 261° |
| 2026-04-25 01:53 | 38.85097 | -77.04117 | 22 ft | 0 kts | 261° |